Time;durP1;ratioP1;P1;durP2;ratioP2;P2;SDS_P1;SDS_P2;PMS_P1;PMS_P2;Temp;Humidity;BMP_temperature;BMP_pressure;BME280_temperature;BME280_humidity;BME280_pressure;Samples;Min_cycle;Max_cycle;Signal;HPM_P1;HPM_P2
2023/03/15 00:02:15;;;;;;;3.70;1.50;;;2.40;99.90;;;;;;4989091;28;20488;-66
2023/03/15 00:04:43;;;;;;;4.87;1.70;;;2.40;99.90;;;;;;4997439;28;20563;-69
2023/03/15 00:07:11;;;;;;;3.97;1.50;;;2.40;99.90;;;;;;4990343;28;20476;-67
2023/03/15 00:09:39;;;;;;;3.00;1.50;;;2.40;99.90;;;;;;4990021;28;20511;-68
2023/03/15 00:12:11;;;;;;;3.07;1.53;;;2.50;99.90;;;;;;4989205;28;20485;-67
2023/03/15 00:14:38;;;;;;;2.67;1.63;;;2.50;99.90;;;;;;4983697;28;21191;-66
2023/03/15 00:17:06;;;;;;;3.23;1.90;;;2.50;99.90;;;;;;4998974;28;20485;-67
2023/03/15 00:19:34;;;;;;;3.90;1.50;;;2.50;99.90;;;;;;4998979;28;20492;-66
2023/03/15 00:22:02;;;;;;;1.83;1.37;;;2.50;99.90;;;;;;4997130;28;20488;-67
2023/03/15 00:24:30;;;;;;;5.43;1.50;;;2.40;99.90;;;;;;5000441;28;20477;-68
2023/03/15 00:26:58;;;;;;;2.87;1.80;;;2.40;99.90;;;;;;4999160;28;20491;-67
2023/03/15 00:29:27;;;;;;;6.63;1.70;;;2.40;99.90;;;;;;4994560;28;21793;-67
2023/03/15 00:31:55;;;;;;;5.67;1.50;;;2.30;99.90;;;;;;4996231;28;20492;-67
2023/03/15 00:34:25;;;;;;;3.43;1.53;;;2.30;99.90;;;;;;4999059;28;20468;-67
2023/03/15 00:36:56;;;;;;;2.13;1.40;;;2.30;99.90;;;;;;5000055;28;20465;-66
2023/03/15 00:39:25;;;;;;;3.27;1.40;;;2.30;99.90;;;;;;4999739;28;20495;-67
2023/03/15 00:41:55;;;;;;;1.83;1.43;;;2.30;99.90;;;;;;4997136;28;20493;-67
2023/03/15 00:44:24;;;;;;;3.30;1.40;;;2.30;99.90;;;;;;4999858;28;20475;-67
2023/03/15 00:46:53;;;;;;;1.80;1.40;;;2.20;99.90;;;;;;5001163;28;20469;-66
2023/03/15 00:49:21;;;;;;;2.37;1.60;;;2.20;99.90;;;;;;4996399;28;20502;-66
2023/03/15 00:51:49;;;;;;;1.40;1.10;;;2.20;99.90;;;;;;4987862;28;20497;-67
2023/03/15 00:54:17;;;;;;;3.93;1.63;;;2.20;99.90;;;;;;4993748;28;20515;-69
2023/03/15 00:56:45;;;;;;;2.30;1.33;;;2.20;99.90;;;;;;4984242;28;20794;-67
2023/03/15 00:59:13;;;;;;;2.13;1.40;;;2.20;99.90;;;;;;4984518;28;20487;-67
2023/03/15 01:01:43;;;;;;;2.93;1.10;;;2.20;99.90;;;;;;4983744;28;20484;-68
2023/03/15 01:04:13;;;;;;;1.37;1.27;;;2.20;99.90;;;;;;4994376;28;21023;-68
2023/03/15 01:06:41;;;;;;;4.33;1.63;;;2.20;99.90;;;;;;4997805;28;20998;-67
2023/03/15 01:09:09;;;;;;;3.47;1.93;;;2.20;99.90;;;;;;4994638;28;20492;-67
2023/03/15 01:11:37;;;;;;;2.00;1.40;;;2.20;99.90;;;;;;4983829;28;20514;-67
2023/03/15 01:14:07;;;;;;;6.93;2.00;;;2.10;99.90;;;;;;4990840;28;20469;-66
2023/03/15 01:16:36;;;;;;;4.63;2.00;;;2.10;99.90;;;;;;4985053;28;20893;-67
2023/03/15 01:19:04;;;;;;;2.57;1.60;;;2.10;99.90;;;;;;4996241;28;21044;-67
2023/03/15 01:21:33;;;;;;;2.80;2.10;;;2.10;99.90;;;;;;4980757;28;20488;-66
2023/03/15 01:24:01;;;;;;;3.50;1.60;;;2.10;99.90;;;;;;4987943;28;21702;-67
2023/03/15 01:26:29;;;;;;;3.90;2.20;;;2.10;99.90;;;;;;4977262;28;20477;-67
2023/03/15 01:28:57;;;;;;;3.43;2.03;;;2.10;99.90;;;;;;4989819;28;20500;-67
2023/03/15 01:31:27;;;;;;;2.50;2.00;;;2.10;99.90;;;;;;4993251;28;20554;-67
2023/03/15 01:33:55;;;;;;;5.27;2.27;;;2.10;99.90;;;;;;4993352;28;20916;-66
2023/03/15 01:36:24;;;;;;;3.87;2.40;;;2.20;99.90;;;;;;4997174;28;20499;-66
2023/03/15 01:38:53;;;;;;;2.10;1.90;;;2.20;99.90;;;;;;4995567;28;20489;-66
2023/03/15 01:41:23;;;;;;;3.73;2.53;;;2.10;99.90;;;;;;4999216;28;20924;-66
2023/03/15 01:43:52;;;;;;;3.80;2.40;;;2.10;99.90;;;;;;4999314;28;20482;-66
2023/03/15 01:46:28;;;;;;;3.37;2.60;;;2.20;99.90;;;;;;4999477;28;20476;-67
2023/03/15 01:49:02;;;;;;;2.70;2.03;;;2.20;99.90;;;;;;4997405;28;20479;-67
2023/03/15 01:51:36;;;;;;;4.33;2.57;;;2.20;99.90;;;;;;4996025;28;20495;-67
2023/03/15 01:54:10;;;;;;;3.70;2.30;;;2.20;99.90;;;;;;4993800;28;20476;-67
2023/03/15 01:56:41;;;;;;;3.97;2.73;;;2.20;99.90;;;;;;4989140;28;20841;-66
2023/03/15 01:59:16;;;;;;;3.43;3.03;;;2.20;99.90;;;;;;4979062;28;20489;-67
2023/03/15 02:01:45;;;;;;;2.87;2.33;;;2.20;99.90;;;;;;4979720;28;20519;-68
2023/03/15 02:04:17;;;;;;;3.53;2.90;;;2.20;99.90;;;;;;4982259;28;21752;-66
2023/03/15 02:06:46;;;;;;;2.70;2.40;;;2.20;99.90;;;;;;4976694;28;20480;-67
2023/03/15 02:09:18;;;;;;;3.50;2.20;;;2.20;99.90;;;;;;4962407;28;21269;-67
2023/03/15 02:11:47;;;;;;;3.83;2.20;;;2.20;99.90;;;;;;4978008;28;20520;-66
2023/03/15 02:14:15;;;;;;;2.27;2.00;;;2.20;99.90;;;;;;4977154;28;20476;-67
2023/03/15 02:16:44;;;;;;;2.60;2.40;;;2.20;99.90;;;;;;4980806;28;20487;-66
2023/03/15 02:19:24;;;;;;;2.80;2.10;;;2.20;99.90;;;;;;4986538;28;20495;-67
2023/03/15 02:22:00;;;;;;;2.40;2.20;;;2.20;99.90;;;;;;4978323;28;20494;-66
2023/03/15 02:24:38;;;;;;;2.60;2.40;;;2.20;99.90;;;;;;4980191;28;20471;-67
2023/03/15 02:27:06;;;;;;;2.53;2.33;;;2.20;99.90;;;;;;4978010;28;20551;-67
2023/03/15 02:29:36;;;;;;;2.93;2.60;;;2.20;99.90;;;;;;4981033;28;20496;-67
2023/03/15 02:32:04;;;;;;;3.17;2.10;;;2.10;99.90;;;;;;4985346;28;20597;-67
2023/03/15 02:34:32;;;;;;;3.03;2.23;;;2.20;99.90;;;;;;4992716;28;20559;-68
2023/03/15 02:37:01;;;;;;;6.80;2.63;;;2.20;99.90;;;;;;4984213;28;20571;-66
2023/03/15 02:39:29;;;;;;;2.97;2.40;;;2.20;99.90;;;;;;4995021;28;20868;-66
2023/03/15 02:41:58;;;;;;;4.07;2.30;;;2.20;99.90;;;;;;4993633;28;20492;-66
2023/03/15 02:44:31;;;;;;;5.40;2.70;;;2.20;99.90;;;;;;4987407;28;20556;-67
2023/03/15 02:47:04;;;;;;;3.67;2.50;;;2.20;99.90;;;;;;4992548;28;20464;-67
2023/03/15 02:49:37;;;;;;;3.97;2.50;;;2.20;99.90;;;;;;4988298;28;20500;-66
2023/03/15 02:52:06;;;;;;;2.57;1.90;;;2.20;99.90;;;;;;4995284;28;20503;-68
2023/03/15 02:54:34;;;;;;;2.37;2.07;;;2.20;99.90;;;;;;4984259;28;20472;-67
2023/03/15 02:57:02;;;;;;;6.80;2.40;;;2.20;99.90;;;;;;4983702;28;20476;-67
2023/03/15 02:59:30;;;;;;;3.37;2.80;;;2.20;99.90;;;;;;4982034;28;20515;-67
2023/03/15 03:01:58;;;;;;;2.47;2.27;;;2.20;99.90;;;;;;4988316;28;20578;-68
2023/03/15 03:04:28;;;;;;;4.03;2.63;;;2.20;99.90;;;;;;4984567;28;20958;-67
2023/03/15 03:06:56;;;;;;;2.93;2.30;;;2.20;99.90;;;;;;4982719;28;20480;-67
2023/03/15 03:09:24;;;;;;;3.20;2.60;;;2.20;99.90;;;;;;4982683;28;20647;-67
2023/03/15 03:11:52;;;;;;;3.60;2.20;;;2.20;99.90;;;;;;4977440;28;21946;-67
2023/03/15 03:14:22;;;;;;;2.97;2.33;;;2.20;99.90;;;;;;4982049;28;20468;-69
2023/03/15 03:16:50;;;;;;;4.93;2.90;;;2.20;99.90;;;;;;4984125;28;21048;-67
2023/03/15 03:19:18;;;;;;;2.43;2.23;;;2.20;99.90;;;;;;4988065;28;20883;-66
2023/03/15 03:21:48;;;;;;;4.43;2.50;;;2.20;99.90;;;;;;4978238;28;20518;-68
2023/03/15 03:24:16;;;;;;;3.80;2.67;;;2.20;99.90;;;;;;4983800;28;20480;-66
2023/03/15 03:26:45;;;;;;;3.23;2.20;;;2.30;99.90;;;;;;4988251;28;20480;-67
2023/03/15 03:29:15;;;;;;;2.90;2.60;;;2.30;99.90;;;;;;4996896;28;20493;-67
2023/03/15 03:31:44;;;;;;;4.13;2.40;;;2.30;99.90;;;;;;4995635;28;21025;-67
2023/03/15 03:34:14;;;;;;;2.47;2.23;;;2.30;99.90;;;;;;5000019;28;20472;-67
2023/03/15 03:36:42;;;;;;;3.30;2.63;;;2.30;99.90;;;;;;5000190;28;21108;-67
2023/03/15 03:39:12;;;;;;;3.80;2.50;;;2.20;99.90;;;;;;4999028;28;20496;-68
2023/03/15 03:41:40;;;;;;;3.10;2.50;;;2.20;99.90;;;;;;4997223;28;20491;-67
2023/03/15 03:44:08;;;;;;;2.73;2.40;;;2.20;99.90;;;;;;4999036;28;20873;-67
2023/03/15 03:46:36;;;;;;;4.30;2.80;;;2.20;99.90;;;;;;4997342;28;20475;-67
2023/03/15 03:49:04;;;;;;;5.13;2.60;;;2.20;99.90;;;;;;4995948;28;20509;-67
2023/03/15 03:51:32;;;;;;;3.93;3.30;;;2.20;99.90;;;;;;4994010;28;20503;-67
2023/03/15 03:54:00;;;;;;;4.90;2.67;;;2.10;99.90;;;;;;5000327;28;20708;-67
2023/03/15 03:56:30;;;;;;;3.00;2.40;;;2.10;99.90;;;;;;5001372;28;20888;-65
2023/03/15 03:58:58;;;;;;;2.87;2.50;;;2.10;99.90;;;;;;4998968;28;20500;-68
2023/03/15 04:01:26;;;;;;;2.73;2.00;;;2.10;99.90;;;;;;4988486;28;21051;-66
2023/03/15 04:03:54;;;;;;;3.50;1.63;;;2.00;99.90;;;;;;4994474;28;20495;-66
2023/03/15 04:06:22;;;;;;;2.97;1.77;;;2.00;99.90;;;;;;4982930;28;20469;-67
2023/03/15 04:08:50;;;;;;;1.40;1.30;;;2.00;99.90;;;;;;4983055;28;20511;-67
2023/03/15 04:11:18;;;;;;;1.83;1.40;;;2.00;99.90;;;;;;4989723;28;20488;-67
2023/03/15 04:13:48;;;;;;;2.10;1.30;;;2.00;99.90;;;;;;4997630;28;20980;-66
2023/03/15 04:16:16;;;;;;;2.93;1.60;;;2.00;99.90;;;;;;4996200;28;20483;-66
2023/03/15 04:18:44;;;;;;;1.20;1.10;;;2.00;99.90;;;;;;4998291;28;20509;-67
2023/03/15 04:21:12;;;;;;;1.03;0.93;;;2.00;99.90;;;;;;4998985;28;20488;-66
2023/03/15 04:23:40;;;;;;;1.23;1.10;;;2.00;99.90;;;;;;4997232;28;20982;-69
2023/03/15 04:26:08;;;;;;;1.30;1.20;;;1.90;99.90;;;;;;4984881;28;20464;-67
2023/03/15 04:28:37;;;;;;;1.70;1.10;;;1.90;99.90;;;;;;4984041;28;20476;-67
2023/03/15 04:31:09;;;;;;;1.10;0.97;;;1.90;99.90;;;;;;4983204;28;20489;-66
2023/03/15 04:33:37;;;;;;;1.07;0.97;;;1.80;99.90;;;;;;4983546;28;20686;-68
2023/03/15 04:36:05;;;;;;;1.00;1.00;;;1.80;99.90;;;;;;4988548;28;20819;-69
2023/03/15 04:38:34;;;;;;;1.57;1.00;;;1.80;99.90;;;;;;4991375;28;20472;-66
2023/03/15 04:41:09;;;;;;;0.97;0.90;;;1.70;99.90;;;;;;4999095;28;20493;-67
2023/03/15 04:43:37;;;;;;;2.10;1.20;;;1.70;99.90;;;;;;4984786;28;20472;-67
2023/03/15 04:46:06;;;;;;;2.37;1.27;;;1.70;99.90;;;;;;4988775;28;20471;-68
2023/03/15 04:48:34;;;;;;;1.47;1.30;;;1.70;99.90;;;;;;4981617;28;20479;-68
2023/03/15 04:51:03;;;;;;;1.50;1.30;;;1.70;99.90;;;;;;4989101;28;21064;-67
2023/03/15 04:53:31;;;;;;;2.67;2.00;;;1.70;99.90;;;;;;4984316;28;22153;-68
2023/03/15 04:55:59;;;;;;;2.27;1.80;;;1.70;99.90;;;;;;4981883;28;21080;-67
2023/03/15 04:58:28;;;;;;;3.10;2.10;;;1.70;99.90;;;;;;4984615;28;21037;-66
2023/03/15 05:00:56;;;;;;;4.93;2.97;;;1.70;99.90;;;;;;4973643;28;20493;-67
2023/03/15 05:03:25;;;;;;;4.00;3.03;;;1.80;99.90;;;;;;4985140;28;20867;-69
2023/03/15 05:05:53;;;;;;;4.47;3.57;;;1.80;99.90;;;;;;4995874;28;20988;-66
2023/03/15 05:08:21;;;;;;;5.50;4.40;;;1.80;99.90;;;;;;4990827;28;20468;-67
2023/03/15 05:10:50;;;;;;;6.30;5.10;;;1.80;99.90;;;;;;4982952;28;20501;-67
2023/03/15 05:13:19;;;;;;;5.87;5.00;;;1.80;99.90;;;;;;4984348;28;20484;-69
2023/03/15 05:15:47;;;;;;;6.17;4.87;;;1.80;99.90;;;;;;4982960;28;20487;-68
2023/03/15 05:18:15;;;;;;;8.10;5.00;;;1.80;99.90;;;;;;4996950;28;20469;-68
2023/03/15 05:20:44;;;;;;;7.97;4.90;;;1.80;99.90;;;;;;4992926;28;20484;-68
2023/03/15 05:23:13;;;;;;;8.37;5.33;;;1.70;99.90;;;;;;4992700;28;20468;-67
2023/03/15 05:25:41;;;;;;;7.73;5.80;;;1.70;99.90;;;;;;4993254;28;20477;-66
2023/03/15 05:28:09;;;;;;;6.57;5.20;;;1.70;99.90;;;;;;5001503;28;20854;-66
2023/03/15 05:30:37;;;;;;;7.27;5.47;;;1.70;99.90;;;;;;4995115;28;20496;-66
2023/03/15 05:33:04;;;;;;;8.13;5.90;;;1.60;99.90;;;;;;4992511;28;20496;-66
2023/03/15 05:35:32;;;;;;;9.27;5.33;;;1.60;99.90;;;;;;4998260;28;20480;-69
2023/03/15 05:38:02;;;;;;;7.73;6.03;;;1.60;99.90;;;;;;4993824;28;20484;-65
2023/03/15 05:40:31;;;;;;;9.67;5.83;;;1.60;99.90;;;;;;4995363;28;20506;-69
2023/03/15 05:42:59;;;;;;;8.13;6.17;;;1.60;99.90;;;;;;4990126;28;20487;-68
2023/03/15 05:45:27;;;;;;;8.13;6.03;;;1.60;99.90;;;;;;4995702;28;20981;-67
2023/03/15 05:47:55;;;;;;;9.33;6.93;;;1.60;99.90;;;;;;4999553;28;20473;-67
2023/03/15 05:50:23;;;;;;;7.60;6.13;;;1.60;99.90;;;;;;4996188;28;21092;-68
2023/03/15 05:52:51;;;;;;;8.90;6.47;;;1.60;99.90;;;;;;4992355;28;20507;-68
2023/03/15 05:55:20;;;;;;;9.07;6.80;;;1.60;99.90;;;;;;5000079;28;20475;-66
2023/03/15 05:57:48;;;;;;;7.43;6.33;;;1.60;99.90;;;;;;4989340;28;20479;-69
2023/03/15 06:00:17;;;;;;;8.50;6.40;;;1.60;99.90;;;;;;4988566;28;20523;-67
2023/03/15 06:02:46;;;;;;;9.50;6.63;;;1.60;99.90;;;;;;4979872;28;20487;-68
2023/03/15 06:05:14;;;;;;;9.10;6.80;;;1.60;99.90;;;;;;4986286;28;20483;-68
2023/03/15 06:07:43;;;;;;;9.83;7.03;;;1.60;99.90;;;;;;4981043;28;21260;-69
2023/03/15 06:10:12;;;;;;;8.53;6.77;;;1.60;99.90;;;;;;4979284;28;20489;-69
2023/03/15 06:12:43;;;;;;;8.77;6.77;;;1.60;99.90;;;;;;4975279;28;21343;-68
2023/03/15 06:15:11;;;;;;;8.60;7.00;;;1.60;99.90;;;;;;4971802;28;20740;-67
2023/03/15 06:17:39;;;;;;;11.33;8.40;;;1.60;99.90;;;;;;4984186;28;20744;-68
2023/03/15 06:20:08;;;;;;;9.77;7.07;;;1.60;99.90;;;;;;4976038;28;20496;-68
2023/03/15 06:22:37;;;;;;;10.60;7.77;;;1.70;99.90;;;;;;4975760;28;20492;-68
2023/03/15 06:25:05;;;;;;;13.73;7.77;;;1.70;99.90;;;;;;4986167;28;20491;-67
2023/03/15 06:27:34;;;;;;;9.47;7.27;;;1.70;99.90;;;;;;4986713;28;20476;-68
2023/03/15 06:30:03;;;;;;;10.60;7.80;;;1.70;99.90;;;;;;4990102;28;20504;-67
2023/03/15 06:32:31;;;;;;;9.70;6.97;;;1.80;99.90;;;;;;4987072;28;20500;-68
2023/03/15 06:34:59;;;;;;;10.33;8.30;;;1.80;99.90;;;;;;4985728;28;20472;-69
2023/03/15 06:37:27;;;;;;;10.67;7.80;;;1.80;99.90;;;;;;4980764;28;20468;-68
2023/03/15 06:40:06;;;;;;;10.70;7.30;;;1.90;99.90;;;;;;4982965;28;20490;-68
2023/03/15 06:42:34;;;;;;;9.73;7.10;;;1.90;99.90;;;;;;4984240;28;20484;-69
2023/03/15 06:45:04;;;;;;;9.47;7.10;;;1.90;99.90;;;;;;4992320;28;20475;-70
2023/03/15 06:47:32;;;;;;;10.50;8.10;;;2.00;99.90;;;;;;4992626;28;20476;-68
2023/03/15 06:50:00;;;;;;;11.43;7.63;;;2.00;99.90;;;;;;4988099;28;20499;-68
2023/03/15 06:52:28;;;;;;;10.30;7.17;;;2.00;99.90;;;;;;4991435;28;20488;-66
2023/03/15 06:54:56;;;;;;;10.40;7.83;;;2.10;99.90;;;;;;4987082;28;20468;-69
2023/03/15 06:57:24;;;;;;;10.33;6.87;;;2.10;99.90;;;;;;4996032;28;21000;-68
2023/03/15 06:59:53;;;;;;;8.80;7.00;;;2.10;99.90;;;;;;4995094;28;20582;-66
2023/03/15 07:02:22;;;;;;;9.90;7.00;;;2.20;99.90;;;;;;4990878;28;20495;-67
2023/03/15 07:04:50;;;;;;;8.17;6.60;;;2.30;99.90;;;;;;4998072;28;20572;-68
2023/03/15 07:07:18;;;;;;;9.97;6.70;;;2.30;99.90;;;;;;5000430;28;20468;-67
2023/03/15 07:09:46;;;;;;;8.70;6.73;;;2.30;99.90;;;;;;4995511;28;20496;-67
2023/03/15 07:12:16;;;;;;;7.70;6.13;;;2.40;99.90;;;;;;4996554;28;20499;-68
2023/03/15 07:14:45;;;;;;;10.87;6.23;;;2.40;99.90;;;;;;5005155;28;20492;-68
2023/03/15 07:17:13;;;;;;;8.50;6.70;;;2.50;99.90;;;;;;5000732;28;20476;-70
2023/03/15 07:19:42;;;;;;;10.10;5.87;;;2.50;99.90;;;;;;4992042;28;20499;-67
2023/03/15 07:22:23;;;;;;;7.40;5.20;;;2.50;99.90;;;;;;4986114;28;20574;-67
2023/03/15 07:24:51;;;;;;;8.60;4.97;;;2.50;99.90;;;;;;4990465;28;20942;-68
2023/03/15 07:27:19;;;;;;;6.40;5.30;;;2.50;99.90;;;;;;4988060;28;20460;-67
2023/03/15 07:29:47;;;;;;;6.47;4.37;;;2.50;99.90;;;;;;4995724;28;20489;-68
2023/03/15 07:32:15;;;;;;;6.27;4.63;;;2.40;99.90;;;;;;4995226;28;20500;-67
2023/03/15 07:34:44;;;;;;;4.70;4.20;;;2.30;99.90;;;;;;4999403;28;20504;-67
2023/03/15 07:37:13;;;;;;;4.53;4.00;;;2.30;99.90;;;;;;4999104;28;20473;-68
2023/03/15 07:39:41;;;;;;;4.50;4.10;;;2.20;99.90;;;;;;5000617;28;20511;-68
2023/03/15 07:42:09;;;;;;;6.10;4.70;;;2.20;99.90;;;;;;4996555;28;20491;-67
2023/03/15 07:44:37;;;;;;;5.03;4.17;;;2.10;99.90;;;;;;5001020;28;20472;-69
2023/03/15 07:47:05;;;;;;;4.37;3.47;;;2.10;99.90;;;;;;4995686;28;20480;-67
2023/03/15 07:49:34;;;;;;;5.10;3.73;;;2.10;99.90;;;;;;4995720;28;20498;-69
2023/03/15 07:52:03;;;;;;;4.47;3.30;;;2.20;99.90;;;;;;4989438;28;21046;-68
2023/03/15 07:54:33;;;;;;;3.90;2.97;;;2.20;99.90;;;;;;4999157;28;20493;-67
2023/03/15 07:57:01;;;;;;;4.93;3.50;;;2.20;99.90;;;;;;4996753;28;20505;-68
2023/03/15 07:59:29;;;;;;;6.37;3.60;;;2.30;99.90;;;;;;4995876;28;21053;-67
2023/03/15 08:01:57;;;;;;;4.00;3.60;;;2.30;99.90;;;;;;4997508;28;20492;-68
2023/03/15 08:04:28;;;;;;;3.80;3.20;;;2.30;99.90;;;;;;5000824;28;20464;-69
2023/03/15 08:06:56;;;;;;;3.40;3.10;;;2.30;99.90;;;;;;4996048;28;20482;-67
2023/03/15 08:09:25;;;;;;;6.77;3.40;;;2.30;99.90;;;;;;4993795;28;21166;-68
2023/03/15 08:11:53;;;;;;;5.10;3.00;;;2.30;99.90;;;;;;4985578;28;21035;-69
2023/03/15 08:14:21;;;;;;;4.27;3.43;;;2.30;99.90;;;;;;4989050;28;20500;-69
2023/03/15 08:16:50;;;;;;;4.27;2.83;;;2.30;99.90;;;;;;4991642;28;20476;-67
2023/03/15 08:19:18;;;;;;;4.67;3.10;;;2.30;99.90;;;;;;4993899;28;20499;-69
2023/03/15 08:21:46;;;;;;;5.00;3.23;;;2.40;99.90;;;;;;4990163;28;21025;-67
2023/03/15 08:24:15;;;;;;;3.50;2.80;;;2.50;99.90;;;;;;4995267;28;20468;-67
2023/03/15 08:26:44;;;;;;;4.13;3.00;;;2.60;99.90;;;;;;4991905;28;20480;-69
2023/03/15 08:29:12;;;;;;;3.00;2.43;;;2.60;99.90;;;;;;4995400;28;20485;-68
2023/03/15 08:31:40;;;;;;;3.70;3.37;;;2.70;99.90;;;;;;4992020;28;21028;-68
2023/03/15 08:34:08;;;;;;;4.63;2.70;;;2.80;99.90;;;;;;4989233;28;21042;-67
2023/03/15 08:36:36;;;;;;;3.57;3.03;;;2.90;99.90;;;;;;4993043;28;20479;-68
2023/03/15 08:39:05;;;;;;;3.80;3.27;;;3.00;99.90;;;;;;4990301;28;20497;-68
2023/03/15 08:41:33;;;;;;;4.30;2.80;;;3.00;99.90;;;;;;4987060;28;20504;-67
2023/03/15 08:44:02;;;;;;;2.53;2.33;;;3.00;99.90;;;;;;4986961;28;21429;-70
2023/03/15 08:46:31;;;;;;;2.57;2.37;;;3.00;99.90;;;;;;4983997;28;20537;-67
2023/03/15 08:48:59;;;;;;;3.80;3.00;;;3.10;99.90;;;;;;4992531;28;20515;-69
2023/03/15 08:51:29;;;;;;;3.73;2.30;;;3.10;99.90;;;;;;4985287;28;20524;-67
2023/03/15 08:53:58;;;;;;;4.00;2.20;;;3.20;99.90;;;;;;4986099;28;20496;-69
2023/03/15 08:56:26;;;;;;;2.50;1.97;;;3.30;99.90;;;;;;4985264;28;20507;-67
2023/03/15 08:58:54;;;;;;;3.83;2.63;;;3.40;99.90;;;;;;4987259;28;20571;-70
2023/03/15 09:01:23;;;;;;;3.70;2.20;;;3.50;99.90;;;;;;4990395;28;20496;-71
2023/03/15 09:03:51;;;;;;;2.77;2.20;;;3.50;99.90;;;;;;4993118;28;20480;-67
2023/03/15 09:06:19;;;;;;;2.20;2.03;;;3.70;99.90;;;;;;5000250;28;20489;-71
2023/03/15 09:08:47;;;;;;;2.70;2.27;;;3.80;99.90;;;;;;4997555;28;20472;-69
2023/03/15 09:11:15;;;;;;;3.50;2.50;;;3.80;99.90;;;;;;4997486;28;21266;-67
2023/03/15 09:13:43;;;;;;;2.90;1.90;;;3.90;99.90;;;;;;4995317;28;20511;-70
2023/03/15 09:16:11;;;;;;;1.97;1.60;;;3.90;99.90;;;;;;4992152;28;20472;-67
2023/03/15 09:18:42;;;;;;;2.70;1.83;;;3.70;99.90;;;;;;4997562;28;20977;-68
2023/03/15 09:21:11;;;;;;;3.13;1.60;;;3.60;99.90;;;;;;4993630;28;20567;-69
2023/03/15 09:23:39;;;;;;;2.73;1.33;;;3.40;99.90;;;;;;4998946;28;20483;-71
2023/03/15 09:26:07;;;;;;;3.50;1.23;;;3.20;99.90;;;;;;4993306;28;20499;-70
2023/03/15 09:28:35;;;;;;;2.80;1.40;;;3.10;99.90;;;;;;4997242;28;20481;-70
2023/03/15 09:31:06;;;;;;;1.60;1.50;;;3.00;99.90;;;;;;4993639;28;20491;-67
2023/03/15 09:33:34;;;;;;;1.83;1.30;;;3.00;99.90;;;;;;4997326;28;20558;-70
2023/03/15 09:36:04;;;;;;;2.77;1.20;;;2.90;99.90;;;;;;5000057;28;21032;-70
2023/03/15 09:38:32;;;;;;;2.50;1.00;;;2.90;99.90;;;;;;4998304;28;20492;-71
2023/03/15 09:41:02;;;;;;;1.33;0.97;;;2.90;99.90;;;;;;4996899;28;20499;-69
2023/03/15 09:43:59;;;;;;;5.47;1.50;;;3.00;99.90;;;;;;4997633;28;20476;-69
2023/03/15 09:46:30;;;;;;;2.07;1.40;;;3.00;99.90;;;;;;4985694;28;20480;-70
2023/03/15 09:49:04;;;;;;;1.80;1.70;;;3.10;99.90;;;;;;4983508;28;20484;-69
2023/03/15 09:51:41;;;;;;;2.93;1.30;;;3.20;99.90;;;;;;4990921;28;20487;-70
2023/03/15 09:54:13;;;;;;;1.70;1.60;;;3.30;99.90;;;;;;4981666;28;20471;-70
2023/03/15 09:56:50;;;;;;;1.87;1.33;;;3.40;99.90;;;;;;4994257;28;20509;-70
2023/03/15 09:59:21;;;;;;;4.10;1.90;;;3.60;99.90;;;;;;4996199;28;20498;-70
2023/03/15 10:01:52;;;;;;;2.50;1.43;;;3.80;99.90;;;;;;4990701;28;20582;-69
2023/03/15 10:04:27;;;;;;;1.90;1.40;;;3.90;99.90;;;;;;4986075;28;20507;-66
2023/03/15 10:06:59;;;;;;;2.53;1.40;;;4.00;99.90;;;;;;4989930;28;20474;-69
2023/03/15 10:09:32;;;;;;;2.70;1.30;;;3.90;99.90;;;;;;4989341;28;20492;-70
2023/03/15 10:12:08;;;;;;;2.63;1.27;;;3.80;99.90;;;;;;4979498;28;20913;-71
2023/03/15 10:14:55;;;;;;;3.50;1.70;;;3.70;99.90;;;;;;4982777;28;20506;-69
2023/03/15 10:17:35;;;;;;;3.10;1.60;;;3.60;99.90;;;;;;4989136;28;20467;-70
2023/03/15 10:20:08;;;;;;;2.97;1.70;;;3.50;99.90;;;;;;4991018;28;21047;-70
2023/03/15 10:22:44;;;;;;;3.77;1.40;;;3.50;99.90;;;;;;4982821;28;20495;-72
2023/03/15 10:25:16;;;;;;;5.30;1.40;;;3.50;99.90;;;;;;4983518;28;20551;-66
2023/03/15 10:27:49;;;;;;;4.57;1.57;;;3.50;99.90;;;;;;4978547;28;20844;-71
2023/03/15 10:30:20;;;;;;;4.83;1.97;;;3.50;99.90;;;;;;4979615;28;20488;-70
2023/03/15 10:32:52;;;;;;;2.30;1.43;;;3.50;99.90;;;;;;4989146;28;20500;-72
2023/03/15 10:35:20;;;;;;;3.23;1.40;;;3.50;99.90;;;;;;4998894;28;20492;-70
2023/03/15 10:37:50;;;;;;;5.70;2.47;;;3.60;99.90;;;;;;4998957;28;20496;-72
2023/03/15 10:40:40;;;;;;;4.30;1.50;;;3.70;99.90;;;;;;4999160;28;21041;-74
2023/03/15 10:43:21;;;;;;;3.93;1.70;;;4.10;99.90;;;;;;4996384;28;20480;-73
2023/03/15 10:46:01;;;;;;;2.50;1.47;;;4.20;99.90;;;;;;4998564;28;20630;-71
2023/03/15 10:48:31;;;;;;;4.30;1.90;;;4.30;99.90;;;;;;5001114;28;20868;-71
2023/03/15 10:51:05;;;;;;;5.60;2.77;;;4.30;99.90;;;;;;4996849;28;20499;-71
2023/03/15 10:53:34;;;;;;;5.53;1.90;;;4.30;99.90;;;;;;4995149;28;20476;-72
2023/03/15 10:56:06;;;;;;;3.13;1.40;;;4.30;99.90;;;;;;4995639;28;20488;-72
2023/03/15 10:58:41;;;;;;;2.53;1.40;;;4.40;99.90;;;;;;4995344;28;20472;-71
2023/03/15 11:01:22;;;;;;;2.90;2.00;;;4.60;99.90;;;;;;4995872;28;20521;-71
2023/03/15 11:04:02;;;;;;;2.30;0.90;;;4.70;99.90;;;;;;5000080;28;20472;-72
2023/03/15 11:06:40;;;;;;;1.40;1.03;;;4.90;99.90;;;;;;5004093;28;20489;-71
2023/03/15 11:09:12;;;;;;;0.90;0.60;;;4.90;99.90;;;;;;5000333;28;21020;-69
2023/03/15 11:11:56;;;;;;;1.20;0.67;;;5.00;99.90;;;;;;4989713;28;21157;-71
2023/03/15 11:14:25;;;;;;;1.20;0.80;;;4.90;99.90;;;;;;4988766;28;20479;-69
2023/03/15 11:16:55;;;;;;;1.27;0.87;;;5.00;99.90;;;;;;4983071;28;20948;-70
2023/03/15 11:19:27;;;;;;;2.13;1.20;;;5.00;99.90;;;;;;4993418;28;20487;-71
2023/03/15 11:21:57;;;;;;;0.93;0.70;;;5.10;99.90;;;;;;4982958;28;20642;-71
2023/03/15 11:24:28;;;;;;;3.07;1.47;;;5.20;99.90;;;;;;4988816;28;20476;-71
2023/03/15 11:27:00;;;;;;;2.23;0.97;;;5.30;99.90;;;;;;4992880;28;20514;-70
2023/03/15 11:29:31;;;;;;;1.90;0.90;;;5.50;99.90;;;;;;4985225;28;21036;-73
2023/03/15 11:32:01;;;;;;;2.63;0.93;;;5.70;99.90;;;;;;4984981;28;20503;-69
2023/03/15 11:34:42;;;;;;;3.03;1.00;;;5.90;99.90;;;;;;4991140;28;20472;-69
2023/03/15 11:37:15;;;;;;;1.07;0.80;;;6.10;99.90;;;;;;4991099;28;20492;-70
2023/03/15 11:39:50;;;;;;;2.27;0.90;;;6.20;99.90;;;;;;4994492;28;21026;-70
2023/03/15 11:42:33;;;;;;;1.97;0.90;;;6.40;99.90;;;;;;4993831;28;20627;-71
2023/03/15 11:45:04;;;;;;;2.70;1.10;;;6.50;99.90;;;;;;4978325;28;20476;-71
2023/03/15 11:47:41;;;;;;;2.57;1.20;;;6.50;99.90;;;;;;4987034;28;20634;-70
2023/03/15 11:50:13;;;;;;;4.63;1.00;;;6.20;99.90;;;;;;4989746;28;20492;-70
2023/03/15 11:52:41;;;;;;;0.70;0.67;;;5.80;99.90;;;;;;4991228;28;20504;-70
2023/03/15 11:55:19;;;;;;;2.23;0.93;;;5.40;99.90;;;;;;4990564;28;20483;-71
2023/03/15 11:57:49;;;;;;;1.03;0.70;;;5.10;99.90;;;;;;4989740;28;20539;-70
2023/03/15 12:00:51;;;;;;;2.03;0.77;;;4.90;99.90;;;;;;4992509;28;20554;-71
2023/03/15 12:03:37;;;;;;;2.83;0.83;;;4.80;99.90;;;;;;4988218;28;21308;-71
2023/03/15 12:06:26;;;;;;;3.00;0.70;;;4.70;99.90;;;;;;4988101;28;20479;-71
2023/03/15 12:08:55;;;;;;;1.87;0.90;;;4.50;99.90;;;;;;4984867;28;20712;-70
2023/03/15 12:11:41;;;;;;;1.53;0.80;;;4.50;99.90;;;;;;4986841;28;20572;-71
2023/03/15 12:14:27;;;;;;;2.30;0.80;;;4.50;99.90;;;;;;4998930;28;20621;-69
2023/03/15 12:17:38;;;;;;;2.77;1.23;;;4.60;99.90;;;;;;4999345;28;20524;-67
2023/03/15 12:20:17;;;;;;;4.40;1.00;;;4.90;99.90;;;;;;4993132;28;20996;-67
2023/03/15 12:22:50;;;;;;;4.37;1.33;;;5.40;99.90;;;;;;4981833;28;20481;-68
2023/03/15 12:25:23;;;;;;;1.17;0.80;;;5.80;99.90;;;;;;4986422;28;21071;-67
2023/03/15 12:27:54;;;;;;;3.10;0.90;;;6.10;99.90;;;;;;4977473;28;20616;-68
2023/03/15 12:30:25;;;;;;;2.60;0.87;;;6.60;99.90;;;;;;4989507;28;21424;-66
2023/03/15 12:32:56;;;;;;;3.30;1.20;;;7.30;99.90;;;;;;4984293;28;20476;-68
2023/03/15 12:35:30;;;;;;;2.93;1.37;;;7.80;99.90;;;;;;4983615;28;20472;-72
2023/03/15 12:38:00;;;;;;;2.20;1.40;;;7.90;99.90;;;;;;4982035;28;20467;-73
2023/03/15 12:40:49;;;;;;;2.63;1.00;;;7.70;99.90;;;;;;4974988;28;20494;-70
2023/03/15 12:43:36;;;;;;;3.40;1.20;;;7.40;99.90;;;;;;4981599;28;20461;-70
2023/03/15 12:46:05;;;;;;;1.63;0.80;;;7.10;99.90;;;;;;4981595;28;20468;-71
2023/03/15 12:48:34;;;;;;;4.70;1.00;;;7.20;99.90;;;;;;4993288;28;20472;-69
2023/03/15 12:51:33;;;;;;;1.53;0.80;;;8.20;99.90;;;;;;4994183;28;20864;-68
2023/03/15 12:54:02;;;;;;;1.30;0.70;;;9.70;99.90;;;;;;4984966;28;20522;-66
2023/03/15 12:56:41;;;;;;;2.13;0.80;;;12.00;99.90;;;;;;4997196;28;20492;-67
2023/03/15 12:59:20;;;;;;;1.20;0.70;;;13.80;99.90;;;;;;4999533;28;20495;-68
2023/03/15 13:01:49;;;;;;;3.30;1.07;;;15.80;97.80;;;;;;4997397;28;20484;-68
2023/03/15 13:04:18;;;;;;;3.03;0.97;;;17.50;68.80;;;;;;4995452;28;20529;-69
2023/03/15 13:07:04;;;;;;;1.90;0.93;;;18.40;62.40;;;;;;4978577;28;21454;-69
2023/03/15 13:09:47;;;;;;;1.93;0.90;;;18.80;58.10;;;;;;4979178;28;21046;-76
2023/03/15 13:12:24;;;;;;;1.77;1.10;;;19.40;55.80;;;;;;4978706;28;20600;-73
2023/03/15 13:14:58;;;;;;;1.47;0.80;;;19.70;51.60;;;;;;4984042;28;20471;-70